Kap Morris Jesup

KL  EN  DA
ASIAQ
Weather Now GREENLAND SURVEY
Updated [WGT/WGST] Temperature [°C] Wind [m/s] Air pressure [hPa] Relative humidity [%] Precipitation [mm]
Present Wind chill Speed Max
27.09 02:00-8,8-17,06,7 ⇒7,7103089n/a
27.09 01:00-8,7-15,54,6 ⇒5,7103089n/a
27.09 00:00-8,1-14,74,6 ⇒5,7103082n/a
26.09 23:00-8,8-16,45,7 ⇒7,2103088n/a
26.09 22:00-8,9-16,96,2 ⇒7,2103089n/a
26.09 21:00-9,0-17,97,7 ⇒9,3103088n/a
26.09 20:00-8,9-18,08,2 ⇒9,3102988n/a
26.09 19:00-9,1-18,38,2 ⇒10,3102888n/a
26.09 18:00-9,0-18,18,2 ⇒9,8102888n/a
26.09 17:00-9,0-18,18,2 ⇒10,8102887n/a
26.09 16:00-8,8-18,28,8 ⇒11,3102788n/a
26.09 15:00-8,8-18,69,8 ⇒12,9102688n/a
26.09 14:00-8,4-17,99,3 ⇒11,3102688n/a
26.09 13:00-8,1-17,28,8 ⇒10,3102590n/a
26.09 12:00-7,8-17,19,3 ⇒11,3102589n/a
26.09 11:00-7,6-17,410,8 ⇒13,4102490n/a
26.09 10:00-7,2-16,710,3 ⇒13,4102489n/a
26.09 09:00-6,1-14,89,3 ⇒11,8102490n/a
26.09 08:00-5,9-15,010,3 ⇒12,9102490n/a
26.09 07:00-6,9-12,43,6 ⇗4,6102483n/a
26.09 06:00-7,4-13,54,1 ⇗5,1102480n/a
26.09 05:00-7,3-10,11,5 ⇑2,1102487n/a
26.09 04:00-7,2-11,72,6 ⇖4,1102487n/a
26.09 03:00-6,0-8,61,5 ⇒2,1102389n/a
26.09 02:00-6,7-10,42,1 ⇒2,6102480n/a
Position: (83.6561111111,-33.3738888888)

[Back]